sensor_id;sensor_type;location;lat;lon;timestamp;P1;durP1;ratioP1;P2;durP2;ratioP2
81180;SDS011;70650;51.408;7.132;2023-08-17T00:00:02;8.57;;;3.60;;
81180;SDS011;70650;51.408;7.132;2023-08-17T00:02:29;8.77;;;3.67;;
81180;SDS011;70650;51.408;7.132;2023-08-17T00:04:54;7.47;;;3.95;;
81180;SDS011;70650;51.408;7.132;2023-08-17T00:07:19;7.47;;;3.37;;
81180;SDS011;70650;51.408;7.132;2023-08-17T00:09:45;7.63;;;3.70;;
81180;SDS011;70650;51.408;7.132;2023-08-17T00:12:10;7.27;;;3.40;;
81180;SDS011;70650;51.408;7.132;2023-08-17T00:14:36;8.30;;;3.60;;
81180;SDS011;70650;51.408;7.132;2023-08-17T00:17:01;7.40;;;3.45;;
81180;SDS011;70650;51.408;7.132;2023-08-17T00:19:28;6.90;;;3.30;;
81180;SDS011;70650;51.408;7.132;2023-08-17T00:21:53;7.60;;;3.38;;
81180;SDS011;70650;51.408;7.132;2023-08-17T00:24:20;6.47;;;3.35;;
81180;SDS011;70650;51.408;7.132;2023-08-17T00:26:45;6.80;;;3.37;;
81180;SDS011;70650;51.408;7.132;2023-08-17T00:29:10;5.57;;;3.00;;
81180;SDS011;70650;51.408;7.132;2023-08-17T00:31:36;6.73;;;3.77;;
81180;SDS011;70650;51.408;7.132;2023-08-17T00:34:01;7.27;;;3.53;;
81180;SDS011;70650;51.408;7.132;2023-08-17T00:36:26;7.90;;;3.00;;
81180;SDS011;70650;51.408;7.132;2023-08-17T00:38:52;6.97;;;3.10;;
81180;SDS011;70650;51.408;7.132;2023-08-17T00:41:17;8.15;;;3.67;;
81180;SDS011;70650;51.408;7.132;2023-08-17T00:43:45;9.10;;;3.30;;
81180;SDS011;70650;51.408;7.132;2023-08-17T00:46:10;7.30;;;3.27;;
81180;SDS011;70650;51.408;7.132;2023-08-17T00:48:36;6.32;;;3.45;;
81180;SDS011;70650;51.408;7.132;2023-08-17T00:51:02;7.50;;;2.90;;
81180;SDS011;70650;51.408;7.132;2023-08-17T00:53:28;7.28;;;3.33;;
81180;SDS011;70650;51.408;7.132;2023-08-17T00:55:56;7.40;;;3.72;;
81180;SDS011;70650;51.408;7.132;2023-08-17T00:58:22;6.28;;;2.83;;
81180;SDS011;70650;51.408;7.132;2023-08-17T01:00:47;7.75;;;3.33;;
81180;SDS011;70650;51.408;7.132;2023-08-17T01:03:13;5.97;;;2.97;;
81180;SDS011;70650;51.408;7.132;2023-08-17T01:05:39;9.05;;;3.40;;
81180;SDS011;70650;51.408;7.132;2023-08-17T01:08:05;5.53;;;2.80;;
81180;SDS011;70650;51.408;7.132;2023-08-17T01:10:39;6.67;;;3.10;;
81180;SDS011;70650;51.408;7.132;2023-08-17T01:13:14;6.55;;;2.80;;
81180;SDS011;70650;51.408;7.132;2023-08-17T01:15:45;8.20;;;2.92;;
81180;SDS011;70650;51.408;7.132;2023-08-17T01:20:53;5.78;;;2.47;;
81180;SDS011;70650;51.408;7.132;2023-08-17T01:23:19;7.70;;;3.30;;
81180;SDS011;70650;51.408;7.132;2023-08-17T01:25:47;4.68;;;2.20;;
81180;SDS011;70650;51.408;7.132;2023-08-17T01:28:13;5.32;;;2.17;;
81180;SDS011;70650;51.408;7.132;2023-08-17T01:33:09;4.97;;;2.17;;
81180;SDS011;70650;51.408;7.132;2023-08-17T01:35:40;4.88;;;2.17;;
81180;SDS011;70650;51.408;7.132;2023-08-17T01:38:12;8.48;;;2.47;;
81180;SDS011;70650;51.408;7.132;2023-08-17T01:40:45;4.95;;;1.92;;
81180;SDS011;70650;51.408;7.132;2023-08-17T01:43:12;4.60;;;2.20;;
81180;SDS011;70650;51.408;7.132;2023-08-17T01:49:04;4.95;;;2.28;;
81180;SDS011;70650;51.408;7.132;2023-08-17T01:51:30;5.63;;;2.42;;
81180;SDS011;70650;51.408;7.132;2023-08-17T01:53:55;6.60;;;2.70;;
81180;SDS011;70650;51.408;7.132;2023-08-17T01:56:24;5.07;;;2.60;;
81180;SDS011;70650;51.408;7.132;2023-08-17T01:58:49;5.47;;;2.28;;
81180;SDS011;70650;51.408;7.132;2023-08-17T02:01:14;6.18;;;2.67;;
81180;SDS011;70650;51.408;7.132;2023-08-17T02:03:40;6.93;;;2.92;;
81180;SDS011;70650;51.408;7.132;2023-08-17T02:06:08;6.83;;;3.50;;
81180;SDS011;70650;51.408;7.132;2023-08-17T02:08:33;8.70;;;3.47;;
81180;SDS011;70650;51.408;7.132;2023-08-17T02:11:00;9.32;;;3.28;;
81180;SDS011;70650;51.408;7.132;2023-08-17T02:13:25;7.95;;;3.70;;
81180;SDS011;70650;51.408;7.132;2023-08-17T02:15:52;7.53;;;4.00;;
81180;SDS011;70650;51.408;7.132;2023-08-17T02:18:17;7.28;;;4.00;;
81180;SDS011;70650;51.408;7.132;2023-08-17T02:20:43;8.23;;;4.60;;
81180;SDS011;70650;51.408;7.132;2023-08-17T02:23:08;9.88;;;4.22;;
81180;SDS011;70650;51.408;7.132;2023-08-17T02:25:37;8.25;;;4.50;;
81180;SDS011;70650;51.408;7.132;2023-08-17T02:28:03;8.52;;;4.22;;
81180;SDS011;70650;51.408;7.132;2023-08-17T02:30:29;8.98;;;5.18;;
81180;SDS011;70650;51.408;7.132;2023-08-17T02:32:54;11.55;;;5.85;;
81180;SDS011;70650;51.408;7.132;2023-08-17T02:35:20;8.93;;;5.00;;
81180;SDS011;70650;51.408;7.132;2023-08-17T02:37:45;7.83;;;4.50;;
81180;SDS011;70650;51.408;7.132;2023-08-17T02:40:11;10.00;;;4.97;;
81180;SDS011;70650;51.408;7.132;2023-08-17T02:42:36;9.65;;;4.80;;
81180;SDS011;70650;51.408;7.132;2023-08-17T02:45:02;8.67;;;4.23;;
81180;SDS011;70650;51.408;7.132;2023-08-17T02:47:27;11.32;;;5.45;;
81180;SDS011;70650;51.408;7.132;2023-08-17T02:49:53;7.73;;;4.47;;
81180;SDS011;70650;51.408;7.132;2023-08-17T02:52:18;8.77;;;4.93;;
81180;SDS011;70650;51.408;7.132;2023-08-17T02:54:43;9.57;;;5.80;;
81180;SDS011;70650;51.408;7.132;2023-08-17T02:57:09;9.95;;;5.53;;
81180;SDS011;70650;51.408;7.132;2023-08-17T02:59:34;10.15;;;5.18;;
81180;SDS011;70650;51.408;7.132;2023-08-17T03:01:59;8.40;;;4.77;;
81180;SDS011;70650;51.408;7.132;2023-08-17T03:04:24;9.67;;;5.10;;
81180;SDS011;70650;51.408;7.132;2023-08-17T03:06:50;11.07;;;5.30;;
81180;SDS011;70650;51.408;7.132;2023-08-17T03:09:16;9.13;;;4.50;;
81180;SDS011;70650;51.408;7.132;2023-08-17T03:11:42;9.67;;;4.90;;
81180;SDS011;70650;51.408;7.132;2023-08-17T03:14:07;8.27;;;4.50;;
81180;SDS011;70650;51.408;7.132;2023-08-17T03:16:33;9.85;;;4.60;;
81180;SDS011;70650;51.408;7.132;2023-08-17T03:19:03;9.77;;;4.60;;
81180;SDS011;70650;51.408;7.132;2023-08-17T03:21:28;8.68;;;4.55;;
81180;SDS011;70650;51.408;7.132;2023-08-17T03:23:53;9.03;;;4.30;;
81180;SDS011;70650;51.408;7.132;2023-08-17T03:26:19;10.07;;;4.20;;
81180;SDS011;70650;51.408;7.132;2023-08-17T03:28:44;7.10;;;3.77;;
81180;SDS011;70650;51.408;7.132;2023-08-17T03:31:13;10.10;;;4.50;;
81180;SDS011;70650;51.408;7.132;2023-08-17T03:33:38;9.05;;;4.57;;
81180;SDS011;70650;51.408;7.132;2023-08-17T03:36:05;7.95;;;4.18;;
81180;SDS011;70650;51.408;7.132;2023-08-17T03:38:31;10.45;;;4.43;;
81180;SDS011;70650;51.408;7.132;2023-08-17T03:40:56;8.43;;;4.07;;
81180;SDS011;70650;51.408;7.132;2023-08-17T03:43:23;9.85;;;4.22;;
81180;SDS011;70650;51.408;7.132;2023-08-17T03:45:48;8.95;;;4.40;;
81180;SDS011;70650;51.408;7.132;2023-08-17T03:48:13;8.40;;;4.47;;
81180;SDS011;70650;51.408;7.132;2023-08-17T03:50:39;9.10;;;4.60;;
81180;SDS011;70650;51.408;7.132;2023-08-17T03:53:04;9.63;;;4.40;;
81180;SDS011;70650;51.408;7.132;2023-08-17T03:55:29;11.37;;;4.73;;
81180;SDS011;70650;51.408;7.132;2023-08-17T03:57:55;7.60;;;4.28;;
81180;SDS011;70650;51.408;7.132;2023-08-17T04:00:20;8.73;;;4.23;;
81180;SDS011;70650;51.408;7.132;2023-08-17T04:02:45;8.35;;;4.28;;
81180;SDS011;70650;51.408;7.132;2023-08-17T04:05:11;8.27;;;3.88;;
81180;SDS011;70650;51.408;7.132;2023-08-17T04:07:37;9.95;;;4.80;;
81180;SDS011;70650;51.408;7.132;2023-08-17T04:10:03;11.40;;;5.05;;
81180;SDS011;70650;51.408;7.132;2023-08-17T04:12:31;10.25;;;5.28;;
81180;SDS011;70650;51.408;7.132;2023-08-17T04:14:56;10.32;;;5.20;;
81180;SDS011;70650;51.408;7.132;2023-08-17T04:17:22;9.93;;;5.03;;
81180;SDS011;70650;51.408;7.132;2023-08-17T04:19:47;9.70;;;5.47;;
81180;SDS011;70650;51.408;7.132;2023-08-17T04:22:12;10.97;;;5.77;;
81180;SDS011;70650;51.408;7.132;2023-08-17T04:24:38;14.20;;;6.23;;
81180;SDS011;70650;51.408;7.132;2023-08-17T04:27:03;10.40;;;5.60;;
81180;SDS011;70650;51.408;7.132;2023-08-17T04:29:29;12.73;;;6.35;;
81180;SDS011;70650;51.408;7.132;2023-08-17T04:31:55;11.85;;;6.75;;
81180;SDS011;70650;51.408;7.132;2023-08-17T04:34:20;11.47;;;6.50;;
81180;SDS011;70650;51.408;7.132;2023-08-17T04:36:46;12.48;;;6.70;;
81180;SDS011;70650;51.408;7.132;2023-08-17T04:39:11;12.70;;;7.38;;
81180;SDS011;70650;51.408;7.132;2023-08-17T04:41:36;13.63;;;7.93;;
81180;SDS011;70650;51.408;7.132;2023-08-17T04:44:02;13.68;;;7.50;;
81180;SDS011;70650;51.408;7.132;2023-08-17T04:46:27;13.85;;;7.57;;
81180;SDS011;70650;51.408;7.132;2023-08-17T04:48:53;17.57;;;7.90;;
81180;SDS011;70650;51.408;7.132;2023-08-17T04:51:18;16.40;;;8.07;;
81180;SDS011;70650;51.408;7.132;2023-08-17T04:53:43;18.13;;;8.68;;
81180;SDS011;70650;51.408;7.132;2023-08-17T04:56:09;14.73;;;8.73;;
81180;SDS011;70650;51.408;7.132;2023-08-17T04:58:34;15.75;;;9.38;;
81180;SDS011;70650;51.408;7.132;2023-08-17T05:00:59;16.83;;;8.93;;
81180;SDS011;70650;51.408;7.132;2023-08-17T05:03:25;14.47;;;8.33;;
81180;SDS011;70650;51.408;7.132;2023-08-17T05:05:51;18.17;;;9.25;;
81180;SDS011;70650;51.408;7.132;2023-08-17T05:08:18;16.95;;;9.50;;
81180;SDS011;70650;51.408;7.132;2023-08-17T05:10:44;17.60;;;10.33;;
81180;SDS011;70650;51.408;7.132;2023-08-17T05:13:10;17.27;;;10.13;;
81180;SDS011;70650;51.408;7.132;2023-08-17T05:15:35;15.77;;;10.13;;
81180;SDS011;70650;51.408;7.132;2023-08-17T05:18:00;18.13;;;10.03;;
81180;SDS011;70650;51.408;7.132;2023-08-17T05:20:26;17.35;;;10.82;;
81180;SDS011;70650;51.408;7.132;2023-08-17T05:22:51;15.57;;;9.53;;
81180;SDS011;70650;51.408;7.132;2023-08-17T05:25:22;18.73;;;10.15;;
81180;SDS011;70650;51.408;7.132;2023-08-17T05:27:47;16.50;;;10.00;;
81180;SDS011;70650;51.408;7.132;2023-08-17T05:30:14;15.80;;;9.38;;
81180;SDS011;70650;51.408;7.132;2023-08-17T05:32:39;18.33;;;10.65;;
81180;SDS011;70650;51.408;7.132;2023-08-17T05:35:06;16.17;;;10.38;;
81180;SDS011;70650;51.408;7.132;2023-08-17T05:37:32;12.02;;;6.00;;
81180;SDS011;70650;51.408;7.132;2023-08-17T05:39:57;13.43;;;8.00;;
81180;SDS011;70650;51.408;7.132;2023-08-17T05:42:23;13.10;;;7.43;;
81180;SDS011;70650;51.408;7.132;2023-08-17T05:44:50;13.48;;;8.32;;
81180;SDS011;70650;51.408;7.132;2023-08-17T05:47:15;12.57;;;8.30;;
81180;SDS011;70650;51.408;7.132;2023-08-17T05:49:43;14.43;;;8.80;;
81180;SDS011;70650;51.408;7.132;2023-08-17T05:52:08;15.23;;;8.32;;
81180;SDS011;70650;51.408;7.132;2023-08-17T05:54:35;16.13;;;8.82;;
81180;SDS011;70650;51.408;7.132;2023-08-17T05:57:01;14.30;;;8.95;;
81180;SDS011;70650;51.408;7.132;2023-08-17T05:59:26;14.82;;;9.00;;
81180;SDS011;70650;51.408;7.132;2023-08-17T06:01:52;12.95;;;7.93;;
81180;SDS011;70650;51.408;7.132;2023-08-17T06:04:17;18.07;;;9.03;;
81180;SDS011;70650;51.408;7.132;2023-08-17T06:06:43;14.63;;;9.48;;
81180;SDS011;70650;51.408;7.132;2023-08-17T06:09:08;14.98;;;9.07;;
81180;SDS011;70650;51.408;7.132;2023-08-17T06:11:34;14.23;;;8.85;;
81180;SDS011;70650;51.408;7.132;2023-08-17T06:13:59;15.38;;;9.50;;
81180;SDS011;70650;51.408;7.132;2023-08-17T06:16:25;14.65;;;8.70;;
81180;SDS011;70650;51.408;7.132;2023-08-17T06:18:51;16.13;;;9.32;;
81180;SDS011;70650;51.408;7.132;2023-08-17T06:21:17;16.08;;;9.82;;
81180;SDS011;70650;51.408;7.132;2023-08-17T06:23:42;16.58;;;9.20;;
81180;SDS011;70650;51.408;7.132;2023-08-17T06:26:08;16.27;;;10.07;;
81180;SDS011;70650;51.408;7.132;2023-08-17T06:28:33;18.27;;;9.75;;
81180;SDS011;70650;51.408;7.132;2023-08-17T06:30:59;16.40;;;9.83;;
81180;SDS011;70650;51.408;7.132;2023-08-17T06:33:24;16.25;;;9.38;;
81180;SDS011;70650;51.408;7.132;2023-08-17T06:35:49;17.60;;;9.55;;
81180;SDS011;70650;51.408;7.132;2023-08-17T06:38:16;16.75;;;9.75;;
81180;SDS011;70650;51.408;7.132;2023-08-17T06:40:42;20.67;;;10.38;;
81180;SDS011;70650;51.408;7.132;2023-08-17T06:43:07;18.75;;;10.05;;
81180;SDS011;70650;51.408;7.132;2023-08-17T06:45:33;18.77;;;10.63;;
81180;SDS011;70650;51.408;7.132;2023-08-17T06:47:58;19.90;;;10.63;;
81180;SDS011;70650;51.408;7.132;2023-08-17T06:50:24;21.52;;;10.75;;
81180;SDS011;70650;51.408;7.132;2023-08-17T06:52:50;17.67;;;11.00;;
81180;SDS011;70650;51.408;7.132;2023-08-17T06:55:16;19.15;;;10.65;;
81180;SDS011;70650;51.408;7.132;2023-08-17T06:57:42;19.35;;;11.13;;
81180;SDS011;70650;51.408;7.132;2023-08-17T07:00:07;17.88;;;10.20;;
81180;SDS011;70650;51.408;7.132;2023-08-17T07:02:33;21.08;;;10.23;;
81180;SDS011;70650;51.408;7.132;2023-08-17T07:05:02;19.42;;;10.43;;
81180;SDS011;70650;51.408;7.132;2023-08-17T07:07:29;19.83;;;10.38;;
81180;SDS011;70650;51.408;7.132;2023-08-17T07:09:56;18.90;;;10.65;;
81180;SDS011;70650;51.408;7.132;2023-08-17T07:12:22;19.63;;;10.75;;
81180;SDS011;70650;51.408;7.132;2023-08-17T07:14:48;18.73;;;9.75;;
81180;SDS011;70650;51.408;7.132;2023-08-17T07:17:14;20.17;;;9.70;;
81180;SDS011;70650;51.408;7.132;2023-08-17T07:19:40;19.08;;;10.27;;
81180;SDS011;70650;51.408;7.132;2023-08-17T07:22:06;21.88;;;11.18;;
81180;SDS011;70650;51.408;7.132;2023-08-17T07:24:31;18.07;;;10.87;;
81180;SDS011;70650;51.408;7.132;2023-08-17T07:26:56;23.00;;;11.60;;
81180;SDS011;70650;51.408;7.132;2023-08-17T07:29:22;20.40;;;11.38;;
81180;SDS011;70650;51.408;7.132;2023-08-17T07:31:48;21.35;;;11.48;;
81180;SDS011;70650;51.408;7.132;2023-08-17T07:34:13;19.05;;;10.13;;
81180;SDS011;70650;51.408;7.132;2023-08-17T07:36:39;19.25;;;10.88;;
81180;SDS011;70650;51.408;7.132;2023-08-17T07:39:04;19.00;;;11.70;;
81180;SDS011;70650;51.408;7.132;2023-08-17T07:41:30;22.42;;;11.95;;
81180;SDS011;70650;51.408;7.132;2023-08-17T07:43:55;20.88;;;11.75;;
81180;SDS011;70650;51.408;7.132;2023-08-17T07:46:21;21.15;;;11.25;;
81180;SDS011;70650;51.408;7.132;2023-08-17T07:48:46;18.65;;;10.77;;
81180;SDS011;70650;51.408;7.132;2023-08-17T07:51:12;19.70;;;10.40;;
81180;SDS011;70650;51.408;7.132;2023-08-17T07:53:38;19.08;;;10.82;;
81180;SDS011;70650;51.408;7.132;2023-08-17T07:56:04;18.17;;;10.73;;
81180;SDS011;70650;51.408;7.132;2023-08-17T07:58:30;20.10;;;10.20;;
81180;SDS011;70650;51.408;7.132;2023-08-17T08:00:55;19.08;;;11.25;;
81180;SDS011;70650;51.408;7.132;2023-08-17T08:03:20;22.80;;;11.88;;
81180;SDS011;70650;51.408;7.132;2023-08-17T08:05:46;21.38;;;11.85;;
81180;SDS011;70650;51.408;7.132;2023-08-17T08:08:11;24.83;;;12.55;;
81180;SDS011;70650;51.408;7.132;2023-08-17T08:10:39;23.10;;;13.73;;
81180;SDS011;70650;51.408;7.132;2023-08-17T08:13:05;27.15;;;15.05;;
81180;SDS011;70650;51.408;7.132;2023-08-17T08:15:30;24.90;;;14.40;;
81180;SDS011;70650;51.408;7.132;2023-08-17T08:17:55;23.73;;;13.45;;
81180;SDS011;70650;51.408;7.132;2023-08-17T08:20:21;24.23;;;13.43;;
81180;SDS011;70650;51.408;7.132;2023-08-17T08:22:46;25.30;;;15.32;;
81180;SDS011;70650;51.408;7.132;2023-08-17T08:25:16;24.05;;;13.57;;
81180;SDS011;70650;51.408;7.132;2023-08-17T08:27:42;25.10;;;14.60;;
81180;SDS011;70650;51.408;7.132;2023-08-17T08:30:08;23.52;;;13.35;;
81180;SDS011;70650;51.408;7.132;2023-08-17T08:32:33;19.60;;;11.20;;
81180;SDS011;70650;51.408;7.132;2023-08-17T08:34:59;20.30;;;11.32;;
81180;SDS011;70650;51.408;7.132;2023-08-17T08:37:24;21.88;;;10.15;;
81180;SDS011;70650;51.408;7.132;2023-08-17T08:42:17;17.15;;;9.65;;
81180;SDS011;70650;51.408;7.132;2023-08-17T08:44:43;16.77;;;8.65;;
81180;SDS011;70650;51.408;7.132;2023-08-17T08:47:10;16.02;;;9.32;;
81180;SDS011;70650;51.408;7.132;2023-08-17T08:49:40;18.58;;;10.20;;
81180;SDS011;70650;51.408;7.132;2023-08-17T08:52:12;16.80;;;9.93;;
81180;SDS011;70650;51.408;7.132;2023-08-17T08:54:43;21.63;;;12.32;;
81180;SDS011;70650;51.408;7.132;2023-08-17T08:57:12;23.00;;;12.18;;
81180;SDS011;70650;51.408;7.132;2023-08-17T08:59:42;21.88;;;12.55;;
81180;SDS011;70650;51.408;7.132;2023-08-17T09:02:14;21.50;;;11.90;;
81180;SDS011;70650;51.408;7.132;2023-08-17T09:04:45;24.23;;;13.68;;
81180;SDS011;70650;51.408;7.132;2023-08-17T09:07:14;25.15;;;12.80;;
81180;SDS011;70650;51.408;7.132;2023-08-17T09:09:42;24.50;;;14.27;;
81180;SDS011;70650;51.408;7.132;2023-08-17T09:12:11;20.73;;;13.55;;
81180;SDS011;70650;51.408;7.132;2023-08-17T09:14:36;20.40;;;11.10;;
81180;SDS011;70650;51.408;7.132;2023-08-17T09:17:03;18.38;;;10.00;;
81180;SDS011;70650;51.408;7.132;2023-08-17T09:19:31;18.55;;;10.63;;
81180;SDS011;70650;51.408;7.132;2023-08-17T09:21:58;18.48;;;10.75;;
81180;SDS011;70650;51.408;7.132;2023-08-17T09:24:24;18.67;;;12.07;;
81180;SDS011;70650;51.408;7.132;2023-08-17T09:26:58;19.25;;;10.90;;
81180;SDS011;70650;51.408;7.132;2023-08-17T09:29:25;18.55;;;10.18;;
81180;SDS011;70650;51.408;7.132;2023-08-17T09:31:50;16.02;;;10.00;;
81180;SDS011;70650;51.408;7.132;2023-08-17T09:34:16;16.48;;;10.50;;
81180;SDS011;70650;51.408;7.132;2023-08-17T09:36:41;18.02;;;9.98;;
81180;SDS011;70650;51.408;7.132;2023-08-17T09:39:06;14.95;;;9.63;;
81180;SDS011;70650;51.408;7.132;2023-08-17T09:41:38;17.48;;;10.48;;
81180;SDS011;70650;51.408;7.132;2023-08-17T09:44:06;20.25;;;10.82;;
81180;SDS011;70650;51.408;7.132;2023-08-17T09:46:31;18.85;;;10.93;;
81180;SDS011;70650;51.408;7.132;2023-08-17T09:48:57;19.60;;;10.88;;
81180;SDS011;70650;51.408;7.132;2023-08-17T09:51:22;19.50;;;11.43;;
81180;SDS011;70650;51.408;7.132;2023-08-17T09:53:53;21.40;;;12.02;;
81180;SDS011;70650;51.408;7.132;2023-08-17T09:56:21;18.90;;;10.30;;
81180;SDS011;70650;51.408;7.132;2023-08-17T09:58:48;18.90;;;10.88;;
81180;SDS011;70650;51.408;7.132;2023-08-17T10:01:14;18.35;;;11.40;;
81180;SDS011;70650;51.408;7.132;2023-08-17T10:03:42;16.45;;;10.02;;
81180;SDS011;70650;51.408;7.132;2023-08-17T10:06:09;15.07;;;9.18;;
81180;SDS011;70650;51.408;7.132;2023-08-17T10:08:43;16.45;;;9.63;;
81180;SDS011;70650;51.408;7.132;2023-08-17T10:11:12;15.13;;;8.63;;
81180;SDS011;70650;51.408;7.132;2023-08-17T10:13:42;15.35;;;9.68;;
81180;SDS011;70650;51.408;7.132;2023-08-17T10:19:05;17.42;;;10.90;;
81180;SDS011;70650;51.408;7.132;2023-08-17T10:24:18;18.20;;;9.90;;
81180;SDS011;70650;51.408;7.132;2023-08-17T10:26:45;17.58;;;9.98;;
81180;SDS011;70650;51.408;7.132;2023-08-17T10:29:11;16.65;;;10.77;;
81180;SDS011;70650;51.408;7.132;2023-08-17T10:31:37;18.00;;;10.75;;
81180;SDS011;70650;51.408;7.132;2023-08-17T10:34:03;16.75;;;10.80;;
81180;SDS011;70650;51.408;7.132;2023-08-17T10:36:30;18.42;;;11.15;;
81180;SDS011;70650;51.408;7.132;2023-08-17T10:41:52;16.45;;;9.63;;
81180;SDS011;70650;51.408;7.132;2023-08-17T10:47:26;16.13;;;9.43;;
81180;SDS011;70650;51.408;7.132;2023-08-17T10:49:57;15.00;;;8.38;;
81180;SDS011;70650;51.408;7.132;2023-08-17T10:52:27;14.40;;;8.70;;
81180;SDS011;70650;51.408;7.132;2023-08-17T10:54:56;15.25;;;8.50;;
81180;SDS011;70650;51.408;7.132;2023-08-17T11:02:52;17.17;;;9.75;;
81180;SDS011;70650;51.408;7.132;2023-08-17T11:05:41;16.77;;;9.50;;
81180;SDS011;70650;51.408;7.132;2023-08-17T11:08:19;14.88;;;8.27;;
81180;SDS011;70650;51.408;7.132;2023-08-17T11:11:03;14.18;;;7.85;;
81180;SDS011;70650;51.408;7.132;2023-08-17T11:13:29;14.55;;;8.85;;
81180;SDS011;70650;51.408;7.132;2023-08-17T11:15:57;13.93;;;8.95;;
81180;SDS011;70650;51.408;7.132;2023-08-17T11:18:23;15.88;;;9.40;;
81180;SDS011;70650;51.408;7.132;2023-08-17T11:20:48;13.38;;;8.18;;
81180;SDS011;70650;51.408;7.132;2023-08-17T11:23:16;13.45;;;7.57;;
81180;SDS011;70650;51.408;7.132;2023-08-17T11:25:44;13.23;;;7.50;;
81180;SDS011;70650;51.408;7.132;2023-08-17T11:28:09;12.52;;;7.63;;
81180;SDS011;70650;51.408;7.132;2023-08-17T11:30:35;12.27;;;7.05;;
81180;SDS011;70650;51.408;7.132;2023-08-17T11:33:04;10.15;;;6.35;;
81180;SDS011;70650;51.408;7.132;2023-08-17T11:35:30;10.07;;;6.18;;
81180;SDS011;70650;51.408;7.132;2023-08-17T11:37:56;8.32;;;4.82;;
81180;SDS011;70650;51.408;7.132;2023-08-17T11:40:23;9.82;;;5.90;;
81180;SDS011;70650;51.408;7.132;2023-08-17T11:42:51;9.65;;;5.00;;
81180;SDS011;70650;51.408;7.132;2023-08-17T11:45:17;10.50;;;5.35;;
81180;SDS011;70650;51.408;7.132;2023-08-17T11:47:43;10.15;;;5.70;;
81180;SDS011;70650;51.408;7.132;2023-08-17T11:50:10;12.02;;;6.32;;
81180;SDS011;70650;51.408;7.132;2023-08-17T11:52:40;9.13;;;5.47;;
81180;SDS011;70650;51.408;7.132;2023-08-17T11:55:06;10.18;;;5.45;;
81180;SDS011;70650;51.408;7.132;2023-08-17T11:57:34;10.57;;;5.95;;
81180;SDS011;70650;51.408;7.132;2023-08-17T12:00:01;11.68;;;6.50;;
81180;SDS011;70650;51.408;7.132;2023-08-17T12:02:29;9.73;;;4.80;;
81180;SDS011;70650;51.408;7.132;2023-08-17T12:04:56;8.25;;;4.40;;
81180;SDS011;70650;51.408;7.132;2023-08-17T12:07:25;8.80;;;4.47;;
81180;SDS011;70650;51.408;7.132;2023-08-17T12:09:51;9.05;;;4.63;;
81180;SDS011;70650;51.408;7.132;2023-08-17T12:12:18;7.45;;;4.47;;
81180;SDS011;70650;51.408;7.132;2023-08-17T12:14:46;10.10;;;4.60;;
81180;SDS011;70650;51.408;7.132;2023-08-17T12:17:15;8.05;;;4.70;;
81180;SDS011;70650;51.408;7.132;2023-08-17T12:19:50;8.82;;;4.50;;
81180;SDS011;70650;51.408;7.132;2023-08-17T12:22:25;7.45;;;4.70;;
81180;SDS011;70650;51.408;7.132;2023-08-17T12:24:52;7.82;;;3.92;;
81180;SDS011;70650;51.408;7.132;2023-08-17T12:27:17;8.50;;;4.10;;
81180;SDS011;70650;51.408;7.132;2023-08-17T12:29:47;8.73;;;4.93;;
81180;SDS011;70650;51.408;7.132;2023-08-17T12:32:13;11.52;;;5.55;;
81180;SDS011;70650;51.408;7.132;2023-08-17T12:34:40;9.88;;;4.95;;
81180;SDS011;70650;51.408;7.132;2023-08-17T12:37:07;9.73;;;5.38;;
81180;SDS011;70650;51.408;7.132;2023-08-17T12:39:33;8.77;;;4.90;;
81180;SDS011;70650;51.408;7.132;2023-08-17T12:41:59;9.30;;;5.17;;
81180;SDS011;70650;51.408;7.132;2023-08-17T12:44:24;8.52;;;4.72;;
81180;SDS011;70650;51.408;7.132;2023-08-17T12:46:50;7.95;;;4.88;;
81180;SDS011;70650;51.408;7.132;2023-08-17T12:49:15;9.98;;;5.95;;
81180;SDS011;70650;51.408;7.132;2023-08-17T12:51:40;8.13;;;5.20;;
81180;SDS011;70650;51.408;7.132;2023-08-17T12:54:07;9.13;;;5.22;;
81180;SDS011;70650;51.408;7.132;2023-08-17T12:56:32;9.30;;;4.90;;
81180;SDS011;70650;51.408;7.132;2023-08-17T12:58:58;8.35;;;4.85;;
81180;SDS011;70650;51.408;7.132;2023-08-17T13:01:23;9.48;;;5.18;;
81180;SDS011;70650;51.408;7.132;2023-08-17T13:03:49;16.10;;;9.30;;
81180;SDS011;70650;51.408;7.132;2023-08-17T13:06:14;17.47;;;10.40;;
81180;SDS011;70650;51.408;7.132;2023-08-17T13:08:40;19.47;;;12.43;;
81180;SDS011;70650;51.408;7.132;2023-08-17T13:11:07;20.90;;;13.32;;
81180;SDS011;70650;51.408;7.132;2023-08-17T13:13:32;20.67;;;12.20;;
81180;SDS011;70650;51.408;7.132;2023-08-17T13:15:57;21.08;;;12.43;;
81180;SDS011;70650;51.408;7.132;2023-08-17T13:18:23;21.92;;;13.23;;
81180;SDS011;70650;51.408;7.132;2023-08-17T13:20:48;22.13;;;13.33;;
81180;SDS011;70650;51.408;7.132;2023-08-17T13:23:13;20.33;;;11.98;;
81180;SDS011;70650;51.408;7.132;2023-08-17T13:25:39;23.23;;;13.33;;
81180;SDS011;70650;51.408;7.132;2023-08-17T13:28:04;20.90;;;12.50;;
81180;SDS011;70650;51.408;7.132;2023-08-17T13:30:30;19.02;;;11.75;;
81180;SDS011;70650;51.408;7.132;2023-08-17T13:32:55;19.58;;;10.68;;
81180;SDS011;70650;51.408;7.132;2023-08-17T13:35:21;17.45;;;10.40;;
81180;SDS011;70650;51.408;7.132;2023-08-17T13:37:50;17.25;;;11.05;;
81180;SDS011;70650;51.408;7.132;2023-08-17T13:40:18;13.80;;;9.10;;
81180;SDS011;70650;51.408;7.132;2023-08-17T13:42:43;15.57;;;10.10;;
81180;SDS011;70650;51.408;7.132;2023-08-17T13:45:08;18.40;;;10.27;;
81180;SDS011;70650;51.408;7.132;2023-08-17T13:47:34;17.15;;;10.57;;
81180;SDS011;70650;51.408;7.132;2023-08-17T13:49:59;16.13;;;10.30;;
81180;SDS011;70650;51.408;7.132;2023-08-17T13:52:28;16.90;;;10.35;;
81180;SDS011;70650;51.408;7.132;2023-08-17T13:54:54;16.10;;;9.30;;
81180;SDS011;70650;51.408;7.132;2023-08-17T13:57:19;18.02;;;11.23;;
81180;SDS011;70650;51.408;7.132;2023-08-17T13:59:45;17.63;;;10.73;;
81180;SDS011;70650;51.408;7.132;2023-08-17T14:02:10;19.23;;;10.55;;
81180;SDS011;70650;51.408;7.132;2023-08-17T14:04:36;19.07;;;10.60;;
81180;SDS011;70650;51.408;7.132;2023-08-17T14:07:01;18.20;;;10.60;;
81180;SDS011;70650;51.408;7.132;2023-08-17T14:09:26;16.50;;;10.20;;
81180;SDS011;70650;51.408;7.132;2023-08-17T14:11:52;16.57;;;10.20;;
81180;SDS011;70650;51.408;7.132;2023-08-17T14:14:17;17.67;;;10.70;;
81180;SDS011;70650;51.408;7.132;2023-08-17T14:16:42;17.83;;;9.63;;
81180;SDS011;70650;51.408;7.132;2023-08-17T14:19:08;15.90;;;9.30;;
81180;SDS011;70650;51.408;7.132;2023-08-17T14:21:33;13.47;;;9.07;;
81180;SDS011;70650;51.408;7.132;2023-08-17T14:24:00;13.85;;;8.32;;
81180;SDS011;70650;51.408;7.132;2023-08-17T14:26:25;14.35;;;8.68;;
81180;SDS011;70650;51.408;7.132;2023-08-17T14:28:50;12.63;;;7.45;;
81180;SDS011;70650;51.408;7.132;2023-08-17T14:31:16;15.05;;;8.25;;
81180;SDS011;70650;51.408;7.132;2023-08-17T14:33:43;12.57;;;7.65;;
81180;SDS011;70650;51.408;7.132;2023-08-17T14:36:12;13.15;;;7.53;;
81180;SDS011;70650;51.408;7.132;2023-08-17T14:38:38;12.07;;;6.80;;
81180;SDS011;70650;51.408;7.132;2023-08-17T14:41:04;12.75;;;7.15;;
81180;SDS011;70650;51.408;7.132;2023-08-17T14:43:31;11.90;;;6.50;;
81180;SDS011;70650;51.408;7.132;2023-08-17T14:45:56;13.50;;;6.87;;
81180;SDS011;70650;51.408;7.132;2023-08-17T14:48:22;10.15;;;6.32;;
81180;SDS011;70650;51.408;7.132;2023-08-17T14:50:47;11.13;;;6.80;;
81180;SDS011;70650;51.408;7.132;2023-08-17T14:53:13;10.82;;;6.68;;
81180;SDS011;70650;51.408;7.132;2023-08-17T14:55:38;11.35;;;7.22;;
81180;SDS011;70650;51.408;7.132;2023-08-17T14:58:03;11.70;;;6.15;;